sensor_id;sensor_type;location;lat;lon;timestamp;temperature;humidity
56268;DHT22;42175;46.930;9.532;2022-10-23T00:01:21;22.50;52.20
56268;DHT22;42175;46.930;9.532;2022-10-23T00:03:51;22.50;52.20
56268;DHT22;42175;46.930;9.532;2022-10-23T00:06:17;22.40;52.00
56268;DHT22;42175;46.930;9.532;2022-10-23T00:08:45;22.50;52.10
56268;DHT22;42175;46.930;9.532;2022-10-23T00:11:13;22.40;52.10
56268;DHT22;42175;46.930;9.532;2022-10-23T00:13:39;22.40;52.10
56268;DHT22;42175;46.930;9.532;2022-10-23T00:16:06;22.40;52.00
56268;DHT22;42175;46.930;9.532;2022-10-23T00:18:32;22.40;52.10
56268;DHT22;42175;46.930;9.532;2022-10-23T00:20:58;22.40;52.10
56268;DHT22;42175;46.930;9.532;2022-10-23T00:23:24;22.40;52.20
56268;DHT22;42175;46.930;9.532;2022-10-23T00:25:50;22.40;52.10
56268;DHT22;42175;46.930;9.532;2022-10-23T00:28:16;22.40;52.10
56268;DHT22;42175;46.930;9.532;2022-10-23T00:30:42;22.40;52.30
56268;DHT22;42175;46.930;9.532;2022-10-23T00:33:08;22.40;52.20
56268;DHT22;42175;46.930;9.532;2022-10-23T00:35:37;22.40;52.20
56268;DHT22;42175;46.930;9.532;2022-10-23T00:38:03;22.40;52.10
56268;DHT22;42175;46.930;9.532;2022-10-23T00:40:29;22.40;52.10
56268;DHT22;42175;46.930;9.532;2022-10-23T00:42:55;22.40;52.20
56268;DHT22;42175;46.930;9.532;2022-10-23T00:45:29;22.40;52.30
56268;DHT22;42175;46.930;9.532;2022-10-23T00:48:01;22.40;52.30
56268;DHT22;42175;46.930;9.532;2022-10-23T00:50:29;22.40;52.10
56268;DHT22;42175;46.930;9.532;2022-10-23T00:52:58;22.40;52.00
56268;DHT22;42175;46.930;9.532;2022-10-23T00:55:25;22.40;52.10
56268;DHT22;42175;46.930;9.532;2022-10-23T00:57:51;22.40;52.00
56268;DHT22;42175;46.930;9.532;2022-10-23T01:00:23;22.40;52.10
56268;DHT22;42175;46.930;9.532;2022-10-23T01:02:51;22.40;52.20
56268;DHT22;42175;46.930;9.532;2022-10-23T01:05:22;22.40;52.00
56268;DHT22;42175;46.930;9.532;2022-10-23T01:07:56;22.40;52.00
56268;DHT22;42175;46.930;9.532;2022-10-23T01:10:33;22.40;52.00
56268;DHT22;42175;46.930;9.532;2022-10-23T01:13:10;22.40;52.00
56268;DHT22;42175;46.930;9.532;2022-10-23T01:15:50;22.40;52.00
56268;DHT22;42175;46.930;9.532;2022-10-23T01:18:33;22.40;52.10
56268;DHT22;42175;46.930;9.532;2022-10-23T01:21:17;22.40;52.10
56268;DHT22;42175;46.930;9.532;2022-10-23T01:28:58;22.40;52.10
56268;DHT22;42175;46.930;9.532;2022-10-23T01:31:38;22.40;52.10
56268;DHT22;42175;46.930;9.532;2022-10-23T01:34:29;22.30;52.10
56268;DHT22;42175;46.930;9.532;2022-10-23T01:36:56;22.30;52.00
56268;DHT22;42175;46.930;9.532;2022-10-23T01:39:28;22.30;51.90
56268;DHT22;42175;46.930;9.532;2022-10-23T01:42:02;22.30;51.90
56268;DHT22;42175;46.930;9.532;2022-10-23T01:45:07;22.30;51.90
56268;DHT22;42175;46.930;9.532;2022-10-23T01:47:27;22.30;51.90
56268;DHT22;42175;46.930;9.532;2022-10-23T01:49:56;22.30;52.00
56268;DHT22;42175;46.930;9.532;2022-10-23T01:52:23;22.30;52.00
56268;DHT22;42175;46.930;9.532;2022-10-23T01:54:50;22.30;52.10
56268;DHT22;42175;46.930;9.532;2022-10-23T01:57:19;22.30;51.80
56268;DHT22;42175;46.930;9.532;2022-10-23T01:59:54;22.30;51.60
56268;DHT22;42175;46.930;9.532;2022-10-23T02:02:22;22.30;51.90
56268;DHT22;42175;46.930;9.532;2022-10-23T02:05:02;22.30;51.80
56268;DHT22;42175;46.930;9.532;2022-10-23T02:07:29;22.30;51.70
56268;DHT22;42175;46.930;9.532;2022-10-23T02:09:55;22.30;51.70
56268;DHT22;42175;46.930;9.532;2022-10-23T02:15:12;22.30;51.80
56268;DHT22;42175;46.930;9.532;2022-10-23T02:23:09;22.30;51.80
56268;DHT22;42175;46.930;9.532;2022-10-23T02:25:42;22.30;51.70
56268;DHT22;42175;46.930;9.532;2022-10-23T02:28:12;22.30;51.90
56268;DHT22;42175;46.930;9.532;2022-10-23T02:30:41;22.30;51.90
56268;DHT22;42175;46.930;9.532;2022-10-23T02:33:11;22.30;51.80
56268;DHT22;42175;46.930;9.532;2022-10-23T02:35:37;22.30;51.80
56268;DHT22;42175;46.930;9.532;2022-10-23T02:47:08;22.30;51.80
56268;DHT22;42175;46.930;9.532;2022-10-23T02:52:57;22.30;51.80
56268;DHT22;42175;46.930;9.532;2022-10-23T02:57:54;22.30;51.60
56268;DHT22;42175;46.930;9.532;2022-10-23T03:00:23;22.20;51.60
56268;DHT22;42175;46.930;9.532;2022-10-23T03:05:22;22.20;51.80
56268;DHT22;42175;46.930;9.532;2022-10-23T03:07:49;22.20;51.70
56268;DHT22;42175;46.930;9.532;2022-10-23T03:10:16;22.20;51.60
56268;DHT22;42175;46.930;9.532;2022-10-23T03:12:41;22.20;51.50
56268;DHT22;42175;46.930;9.532;2022-10-23T03:15:09;22.30;51.50
56268;DHT22;42175;46.930;9.532;2022-10-23T03:17:36;22.20;51.60
56268;DHT22;42175;46.930;9.532;2022-10-23T03:20:04;22.20;51.60
56268;DHT22;42175;46.930;9.532;2022-10-23T03:22:29;22.20;51.80
56268;DHT22;42175;46.930;9.532;2022-10-23T03:24:55;22.20;51.60
56268;DHT22;42175;46.930;9.532;2022-10-23T03:27:21;22.20;51.70
56268;DHT22;42175;46.930;9.532;2022-10-23T03:29:47;22.20;51.60
56268;DHT22;42175;46.930;9.532;2022-10-23T03:32:12;22.20;51.70
56268;DHT22;42175;46.930;9.532;2022-10-23T03:34:38;22.20;51.80
56268;DHT22;42175;46.930;9.532;2022-10-23T03:37:04;22.20;51.70
56268;DHT22;42175;46.930;9.532;2022-10-23T03:39:30;22.20;51.70
56268;DHT22;42175;46.930;9.532;2022-10-23T03:41:56;22.20;51.80
56268;DHT22;42175;46.930;9.532;2022-10-23T03:44:21;22.20;51.60
56268;DHT22;42175;46.930;9.532;2022-10-23T03:46:47;22.20;51.60
56268;DHT22;42175;46.930;9.532;2022-10-23T03:49:13;22.20;51.60
56268;DHT22;42175;46.930;9.532;2022-10-23T03:51:39;22.20;51.70
56268;DHT22;42175;46.930;9.532;2022-10-23T03:54:07;22.20;51.50
56268;DHT22;42175;46.930;9.532;2022-10-23T03:56:33;22.20;51.80
56268;DHT22;42175;46.930;9.532;2022-10-23T03:58:59;22.20;51.60
56268;DHT22;42175;46.930;9.532;2022-10-23T04:01:25;22.20;51.70
56268;DHT22;42175;46.930;9.532;2022-10-23T04:03:51;22.20;51.60
56268;DHT22;42175;46.930;9.532;2022-10-23T04:06:17;22.20;51.70
56268;DHT22;42175;46.930;9.532;2022-10-23T04:08:43;22.20;51.50
56268;DHT22;42175;46.930;9.532;2022-10-23T04:11:10;22.20;51.50
56268;DHT22;42175;46.930;9.532;2022-10-23T04:13:36;22.20;51.40
56268;DHT22;42175;46.930;9.532;2022-10-23T04:16:02;22.20;51.50
56268;DHT22;42175;46.930;9.532;2022-10-23T04:18:28;22.20;51.70
56268;DHT22;42175;46.930;9.532;2022-10-23T04:20:53;22.20;51.80
56268;DHT22;42175;46.930;9.532;2022-10-23T04:23:19;22.20;51.60
56268;DHT22;42175;46.930;9.532;2022-10-23T04:25:46;22.20;51.70
56268;DHT22;42175;46.930;9.532;2022-10-23T04:28:11;22.20;51.60
56268;DHT22;42175;46.930;9.532;2022-10-23T04:30:38;22.20;51.70
56268;DHT22;42175;46.930;9.532;2022-10-23T04:33:03;22.20;51.50
56268;DHT22;42175;46.930;9.532;2022-10-23T04:35:29;22.20;51.70
56268;DHT22;42175;46.930;9.532;2022-10-23T04:37:55;22.20;51.60
56268;DHT22;42175;46.930;9.532;2022-10-23T04:40:20;22.20;51.70
56268;DHT22;42175;46.930;9.532;2022-10-23T04:42:46;22.20;51.70
56268;DHT22;42175;46.930;9.532;2022-10-23T04:45:12;22.20;51.50
56268;DHT22;42175;46.930;9.532;2022-10-23T04:47:38;22.20;51.50
56268;DHT22;42175;46.930;9.532;2022-10-23T04:50:04;22.20;51.50
56268;DHT22;42175;46.930;9.532;2022-10-23T04:52:30;22.20;51.40
56268;DHT22;42175;46.930;9.532;2022-10-23T04:54:55;22.20;51.50
56268;DHT22;42175;46.930;9.532;2022-10-23T04:57:21;22.20;51.60
56268;DHT22;42175;46.930;9.532;2022-10-23T04:59:47;22.20;51.50
56268;DHT22;42175;46.930;9.532;2022-10-23T05:02:13;22.20;51.40
56268;DHT22;42175;46.930;9.532;2022-10-23T05:04:38;22.20;51.30
56268;DHT22;42175;46.930;9.532;2022-10-23T05:07:04;22.20;51.40
56268;DHT22;42175;46.930;9.532;2022-10-23T05:09:30;22.20;51.30
56268;DHT22;42175;46.930;9.532;2022-10-23T05:11:55;22.20;51.40
56268;DHT22;42175;46.930;9.532;2022-10-23T05:14:21;22.20;51.40
56268;DHT22;42175;46.930;9.532;2022-10-23T05:19:26;22.20;51.50
56268;DHT22;42175;46.930;9.532;2022-10-23T05:21:54;22.20;51.50
56268;DHT22;42175;46.930;9.532;2022-10-23T05:24:22;22.20;51.40
56268;DHT22;42175;46.930;9.532;2022-10-23T05:26:48;22.20;51.50
56268;DHT22;42175;46.930;9.532;2022-10-23T05:29:16;22.20;51.40
56268;DHT22;42175;46.930;9.532;2022-10-23T05:31:43;22.20;51.50
56268;DHT22;42175;46.930;9.532;2022-10-23T05:34:10;22.20;51.40
56268;DHT22;42175;46.930;9.532;2022-10-23T05:36:37;22.20;51.50
56268;DHT22;42175;46.930;9.532;2022-10-23T05:39:04;22.20;51.50
56268;DHT22;42175;46.930;9.532;2022-10-23T05:41:30;22.20;51.60
56268;DHT22;42175;46.930;9.532;2022-10-23T05:43:56;22.20;51.40
56268;DHT22;42175;46.930;9.532;2022-10-23T05:46:21;22.20;51.60
56268;DHT22;42175;46.930;9.532;2022-10-23T05:48:52;22.20;51.60
56268;DHT22;42175;46.930;9.532;2022-10-23T05:51:19;22.20;50.60
56268;DHT22;42175;46.930;9.532;2022-10-23T05:53:48;21.10;50.00
56268;DHT22;42175;46.930;9.532;2022-10-23T05:56:14;20.00;51.70
56268;DHT22;42175;46.930;9.532;2022-10-23T05:58:40;19.40;53.50
56268;DHT22;42175;46.930;9.532;2022-10-23T06:01:07;19.10;54.10
56268;DHT22;42175;46.930;9.532;2022-10-23T06:03:34;19.40;53.60
56268;DHT22;42175;46.930;9.532;2022-10-23T06:06:00;19.10;53.80
56268;DHT22;42175;46.930;9.532;2022-10-23T06:08:25;18.70;54.60
56268;DHT22;42175;46.930;9.532;2022-10-23T06:10:51;18.50;55.60
56268;DHT22;42175;46.930;9.532;2022-10-23T06:13:17;18.50;55.60
56268;DHT22;42175;46.930;9.532;2022-10-23T06:15:42;18.50;55.30
56268;DHT22;42175;46.930;9.532;2022-10-23T06:18:08;18.50;55.70
56268;DHT22;42175;46.930;9.532;2022-10-23T06:20:35;18.40;56.30
56268;DHT22;42175;46.930;9.532;2022-10-23T06:23:02;18.40;56.60
56268;DHT22;42175;46.930;9.532;2022-10-23T06:25:28;18.30;57.10
56268;DHT22;42175;46.930;9.532;2022-10-23T06:27:54;19.20;55.40
56268;DHT22;42175;46.930;9.532;2022-10-23T06:30:19;19.90;53.50
56268;DHT22;42175;46.930;9.532;2022-10-23T06:32:45;20.40;52.60
56268;DHT22;42175;46.930;9.532;2022-10-23T06:35:11;20.70;52.10
56268;DHT22;42175;46.930;9.532;2022-10-23T06:37:37;20.90;52.20
56268;DHT22;42175;46.930;9.532;2022-10-23T06:40:03;21.10;52.10
56268;DHT22;42175;46.930;9.532;2022-10-23T06:42:29;21.20;52.00
56268;DHT22;42175;46.930;9.532;2022-10-23T06:44:55;21.30;51.90
56268;DHT22;42175;46.930;9.532;2022-10-23T06:47:21;21.30;51.90
56268;DHT22;42175;46.930;9.532;2022-10-23T06:49:47;21.40;51.90
56268;DHT22;42175;46.930;9.532;2022-10-23T06:52:12;21.40;51.90
56268;DHT22;42175;46.930;9.532;2022-10-23T06:54:38;21.50;51.80
56268;DHT22;42175;46.930;9.532;2022-10-23T06:57:04;21.60;51.90
56268;DHT22;42175;46.930;9.532;2022-10-23T06:59:29;21.60;51.80
56268;DHT22;42175;46.930;9.532;2022-10-23T07:01:55;21.60;51.90
56268;DHT22;42175;46.930;9.532;2022-10-23T07:04:21;21.60;51.90
56268;DHT22;42175;46.930;9.532;2022-10-23T07:06:46;21.60;51.80
56268;DHT22;42175;46.930;9.532;2022-10-23T07:09:12;21.70;51.90
56268;DHT22;42175;46.930;9.532;2022-10-23T07:11:38;21.70;51.90
56268;DHT22;42175;46.930;9.532;2022-10-23T07:14:03;21.70;52.00
56268;DHT22;42175;46.930;9.532;2022-10-23T07:16:29;21.80;52.00
56268;DHT22;42175;46.930;9.532;2022-10-23T07:18:58;21.80;52.00
56268;DHT22;42175;46.930;9.532;2022-10-23T07:21:30;21.80;52.30
56268;DHT22;42175;46.930;9.532;2022-10-23T07:23:57;21.80;52.20
56268;DHT22;42175;46.930;9.532;2022-10-23T07:26:23;21.80;52.20
56268;DHT22;42175;46.930;9.532;2022-10-23T07:28:50;21.80;52.20
56268;DHT22;42175;46.930;9.532;2022-10-23T07:31:21;21.80;52.40
56268;DHT22;42175;46.930;9.532;2022-10-23T07:33:47;21.90;52.60
56268;DHT22;42175;46.930;9.532;2022-10-23T07:36:13;21.90;52.70
56268;DHT22;42175;46.930;9.532;2022-10-23T07:38:38;21.90;52.60
56268;DHT22;42175;46.930;9.532;2022-10-23T07:41:04;21.90;52.60
56268;DHT22;42175;46.930;9.532;2022-10-23T07:43:30;21.90;52.70
56268;DHT22;42175;46.930;9.532;2022-10-23T07:45:56;21.90;52.70
56268;DHT22;42175;46.930;9.532;2022-10-23T07:48:22;21.90;52.70
56268;DHT22;42175;46.930;9.532;2022-10-23T07:50:49;22.00;52.80
56268;DHT22;42175;46.930;9.532;2022-10-23T07:53:21;22.00;52.80
56268;DHT22;42175;46.930;9.532;2022-10-23T07:58:18;22.00;52.70
56268;DHT22;42175;46.930;9.532;2022-10-23T08:00:44;22.00;52.70
56268;DHT22;42175;46.930;9.532;2022-10-23T08:03:17;22.10;52.80
56268;DHT22;42175;46.930;9.532;2022-10-23T08:05:43;22.10;52.70
56268;DHT22;42175;46.930;9.532;2022-10-23T08:08:08;22.10;52.60
56268;DHT22;42175;46.930;9.532;2022-10-23T08:10:34;22.10;52.60
56268;DHT22;42175;46.930;9.532;2022-10-23T08:13:00;22.10;52.50
56268;DHT22;42175;46.930;9.532;2022-10-23T08:15:26;22.20;52.60
56268;DHT22;42175;46.930;9.532;2022-10-23T08:17:51;22.20;52.50
56268;DHT22;42175;46.930;9.532;2022-10-23T08:20:17;22.30;52.40
56268;DHT22;42175;46.930;9.532;2022-10-23T08:22:43;22.30;52.20
56268;DHT22;42175;46.930;9.532;2022-10-23T08:25:09;22.30;52.30
56268;DHT22;42175;46.930;9.532;2022-10-23T08:27:35;22.40;52.20
56268;DHT22;42175;46.930;9.532;2022-10-23T08:30:01;22.40;52.20
56268;DHT22;42175;46.930;9.532;2022-10-23T08:32:28;22.40;52.10
56268;DHT22;42175;46.930;9.532;2022-10-23T08:34:54;22.50;52.10
56268;DHT22;42175;46.930;9.532;2022-10-23T08:37:20;22.50;52.10
56268;DHT22;42175;46.930;9.532;2022-10-23T08:39:46;22.50;52.20
56268;DHT22;42175;46.930;9.532;2022-10-23T08:42:24;22.50;52.20
56268;DHT22;42175;46.930;9.532;2022-10-23T08:45:01;22.50;52.20
56268;DHT22;42175;46.930;9.532;2022-10-23T08:47:54;22.50;52.30
56268;DHT22;42175;46.930;9.532;2022-10-23T08:50:49;22.50;52.30
56268;DHT22;42175;46.930;9.532;2022-10-23T08:53:28;22.50;52.40
56268;DHT22;42175;46.930;9.532;2022-10-23T08:56:02;22.50;52.50
56268;DHT22;42175;46.930;9.532;2022-10-23T09:01:01;22.50;52.60
56268;DHT22;42175;46.930;9.532;2022-10-23T09:03:29;22.50;52.60
56268;DHT22;42175;46.930;9.532;2022-10-23T09:08:46;22.50;52.70
56268;DHT22;42175;46.930;9.532;2022-10-23T09:17:15;22.50;52.80
56268;DHT22;42175;46.930;9.532;2022-10-23T09:19:44;22.50;52.80
56268;DHT22;42175;46.930;9.532;2022-10-23T09:22:11;22.50;52.90
56268;DHT22;42175;46.930;9.532;2022-10-23T09:24:41;22.50;52.80
56268;DHT22;42175;46.930;9.532;2022-10-23T09:27:14;22.50;52.90
56268;DHT22;42175;46.930;9.532;2022-10-23T09:29:51;22.50;52.90
56268;DHT22;42175;46.930;9.532;2022-10-23T09:32:17;22.50;52.90
56268;DHT22;42175;46.930;9.532;2022-10-23T09:34:52;22.50;52.80
56268;DHT22;42175;46.930;9.532;2022-10-23T09:37:27;22.50;52.80
56268;DHT22;42175;46.930;9.532;2022-10-23T09:43:02;22.60;52.80
56268;DHT22;42175;46.930;9.532;2022-10-23T09:45:33;22.60;52.80
56268;DHT22;42175;46.930;9.532;2022-10-23T09:48:16;22.70;52.80
56268;DHT22;42175;46.930;9.532;2022-10-23T09:50:53;22.70;52.80
56268;DHT22;42175;46.930;9.532;2022-10-23T09:53:36;22.70;52.70
56268;DHT22;42175;46.930;9.532;2022-10-23T09:56:40;22.70;52.70
56268;DHT22;42175;46.930;9.532;2022-10-23T09:59:05;22.80;52.80
56268;DHT22;42175;46.930;9.532;2022-10-23T10:01:47;22.70;52.40
56268;DHT22;42175;46.930;9.532;2022-10-23T10:04:13;22.70;52.80
56268;DHT22;42175;46.930;9.532;2022-10-23T10:06:39;22.80;52.80
56268;DHT22;42175;46.930;9.532;2022-10-23T10:09:16;22.80;52.70
56268;DHT22;42175;46.930;9.532;2022-10-23T10:11:43;22.80;53.20
56268;DHT22;42175;46.930;9.532;2022-10-23T10:37:03;22.80;53.80
56268;DHT22;42175;46.930;9.532;2022-10-23T10:51:05;22.80;53.80
56268;DHT22;42175;46.930;9.532;2022-10-23T10:56:16;22.80;54.00
56268;DHT22;42175;46.930;9.532;2022-10-23T10:58:59;22.80;54.10
56268;DHT22;42175;46.930;9.532;2022-10-23T11:01:34;22.80;54.40
56268;DHT22;42175;46.930;9.532;2022-10-23T11:04:11;22.80;54.30
56268;DHT22;42175;46.930;9.532;2022-10-23T11:06:40;22.80;54.20
56268;DHT22;42175;46.930;9.532;2022-10-23T11:09:16;22.80;54.30
56268;DHT22;42175;46.930;9.532;2022-10-23T11:11:44;22.80;54.30
56268;DHT22;42175;46.930;9.532;2022-10-23T11:14:18;22.80;54.20
56268;DHT22;42175;46.930;9.532;2022-10-23T11:22:15;22.80;54.20
56268;DHT22;42175;46.930;9.532;2022-10-23T11:36:17;22.80;54.30
56268;DHT22;42175;46.930;9.532;2022-10-23T11:38:50;22.90;54.70
56268;DHT22;42175;46.930;9.532;2022-10-23T11:41:20;22.90;54.60
56268;DHT22;42175;46.930;9.532;2022-10-23T11:43:50;22.90;54.60
56268;DHT22;42175;46.930;9.532;2022-10-23T11:48:50;22.80;54.40
56268;DHT22;42175;46.930;9.532;2022-10-23T11:56:36;22.80;54.60
56268;DHT22;42175;46.930;9.532;2022-10-23T12:01:49;22.80;54.60
56268;DHT22;42175;46.930;9.532;2022-10-23T12:04:20;22.80;54.50
56268;DHT22;42175;46.930;9.532;2022-10-23T12:06:55;22.90;54.80
56268;DHT22;42175;46.930;9.532;2022-10-23T12:09:43;22.90;54.70
56268;DHT22;42175;46.930;9.532;2022-10-23T12:19:54;22.90;54.70
56268;DHT22;42175;46.930;9.532;2022-10-23T12:22:25;22.80;54.60
56268;DHT22;42175;46.930;9.532;2022-10-23T12:25:02;22.90;54.80
56268;DHT22;42175;46.930;9.532;2022-10-23T12:27:31;22.90;54.70
56268;DHT22;42175;46.930;9.532;2022-10-23T12:38:20;22.90;54.80
56268;DHT22;42175;46.930;9.532;2022-10-23T12:40:52;22.90;54.70
56268;DHT22;42175;46.930;9.532;2022-10-23T12:43:29;22.80;54.80
56268;DHT22;42175;46.930;9.532;2022-10-23T12:46:24;22.90;54.70
56268;DHT22;42175;46.930;9.532;2022-10-23T12:48:50;22.80;54.80
56268;DHT22;42175;46.930;9.532;2022-10-23T12:51:23;22.90;54.80
56268;DHT22;42175;46.930;9.532;2022-10-23T12:53:49;22.80;54.80
56268;DHT22;42175;46.930;9.532;2022-10-23T12:56:15;22.80;54.80
56268;DHT22;42175;46.930;9.532;2022-10-23T12:58:51;22.90;54.80
56268;DHT22;42175;46.930;9.532;2022-10-23T13:01:32;22.90;54.80
56268;DHT22;42175;46.930;9.532;2022-10-23T13:04:12;22.90;54.70
56268;DHT22;42175;46.930;9.532;2022-10-23T13:06:41;22.90;54.70
56268;DHT22;42175;46.930;9.532;2022-10-23T13:09:19;22.90;54.90
56268;DHT22;42175;46.930;9.532;2022-10-23T13:11:47;22.90;54.70
56268;DHT22;42175;46.930;9.532;2022-10-23T13:14:13;22.90;54.70
56268;DHT22;42175;46.930;9.532;2022-10-23T13:16:39;22.90;54.80
56268;DHT22;42175;46.930;9.532;2022-10-23T13:19:05;23.00;54.90
56268;DHT22;42175;46.930;9.532;2022-10-23T13:21:31;23.00;54.80
56268;DHT22;42175;46.930;9.532;2022-10-23T13:23:57;23.00;54.80
56268;DHT22;42175;46.930;9.532;2022-10-23T13:26:37;22.90;54.70
56268;DHT22;42175;46.930;9.532;2022-10-23T13:29:19;22.90;54.70
56268;DHT22;42175;46.930;9.532;2022-10-23T13:31:46;22.90;54.70
56268;DHT22;42175;46.930;9.532;2022-10-23T13:34:22;22.90;54.60
56268;DHT22;42175;46.930;9.532;2022-10-23T13:36:51;22.90;54.80
56268;DHT22;42175;46.930;9.532;2022-10-23T13:39:22;22.90;54.80
56268;DHT22;42175;46.930;9.532;2022-10-23T13:41:49;22.90;54.80
56268;DHT22;42175;46.930;9.532;2022-10-23T13:44:16;22.90;54.80
56268;DHT22;42175;46.930;9.532;2022-10-23T13:46:43;22.90;54.80
56268;DHT22;42175;46.930;9.532;2022-10-23T13:49:09;22.90;54.80
56268;DHT22;42175;46.930;9.532;2022-10-23T13:51:45;22.90;54.70
56268;DHT22;42175;46.930;9.532;2022-10-23T13:54:16;22.90;54.80
56268;DHT22;42175;46.930;9.532;2022-10-23T13:56:42;22.90;54.70
56268;DHT22;42175;46.930;9.532;2022-10-23T13:59:09;22.90;54.70
56268;DHT22;42175;46.930;9.532;2022-10-23T14:01:35;22.90;54.80
56268;DHT22;42175;46.930;9.532;2022-10-23T14:04:02;22.90;54.80
56268;DHT22;42175;46.930;9.532;2022-10-23T14:06:30;22.90;54.70
56268;DHT22;42175;46.930;9.532;2022-10-23T14:08:56;22.90;54.70
56268;DHT22;42175;46.930;9.532;2022-10-23T14:11:23;22.90;55.30
56268;DHT22;42175;46.930;9.532;2022-10-23T14:13:49;22.90;54.70
56268;DHT22;42175;46.930;9.532;2022-10-23T14:16:16;22.90;54.70
56268;DHT22;42175;46.930;9.532;2022-10-23T14:18:43;22.90;54.70
56268;DHT22;42175;46.930;9.532;2022-10-23T14:21:11;22.90;54.70
56268;DHT22;42175;46.930;9.532;2022-10-23T14:23:37;22.90;54.70
56268;DHT22;42175;46.930;9.532;2022-10-23T14:26:04;22.90;54.70
56268;DHT22;42175;46.930;9.532;2022-10-23T14:28:30;22.90;54.70
56268;DHT22;42175;46.930;9.532;2022-10-23T14:30:56;22.90;54.70
56268;DHT22;42175;46.930;9.532;2022-10-23T14:33:21;22.90;54.80
56268;DHT22;42175;46.930;9.532;2022-10-23T14:35:50;22.90;54.70
56268;DHT22;42175;46.930;9.532;2022-10-23T14:38:16;22.90;54.70
56268;DHT22;42175;46.930;9.532;2022-10-23T14:40:42;22.90;54.70
56268;DHT22;42175;46.930;9.532;2022-10-23T14:43:07;22.90;54.80
56268;DHT22;42175;46.930;9.532;2022-10-23T14:45:33;22.90;54.80
56268;DHT22;42175;46.930;9.532;2022-10-23T14:47:59;22.90;54.80
56268;DHT22;42175;46.930;9.532;2022-10-23T14:50:28;22.90;54.70
56268;DHT22;42175;46.930;9.532;2022-10-23T14:52:55;22.90;54.80
56268;DHT22;42175;46.930;9.532;2022-10-23T14:55:21;22.90;55.10
56268;DHT22;42175;46.930;9.532;2022-10-23T14:57:47;22.90;51.20
56268;DHT22;42175;46.930;9.532;2022-10-23T15:00:13;22.90;52.80
56268;DHT22;42175;46.930;9.532;2022-10-23T15:02:39;22.90;52.50
56268;DHT22;42175;46.930;9.532;2022-10-23T15:05:05;22.80;51.80
56268;DHT22;42175;46.930;9.532;2022-10-23T15:07:31;22.80;51.10
56268;DHT22;42175;46.930;9.532;2022-10-23T15:09:57;22.80;49.70
56268;DHT22;42175;46.930;9.532;2022-10-23T15:12:22;22.80;50.70
56268;DHT22;42175;46.930;9.532;2022-10-23T15:14:49;22.80;50.30
56268;DHT22;42175;46.930;9.532;2022-10-23T15:17:14;22.90;50.50
56268;DHT22;42175;46.930;9.532;2022-10-23T15:19:40;22.90;50.40
56268;DHT22;42175;46.930;9.532;2022-10-23T15:22:06;22.90;50.60
56268;DHT22;42175;46.930;9.532;2022-10-23T15:24:31;22.90;50.20
56268;DHT22;42175;46.930;9.532;2022-10-23T15:26:57;22.80;50.30
56268;DHT22;42175;46.930;9.532;2022-10-23T15:29:24;22.80;48.90
56268;DHT22;42175;46.930;9.532;2022-10-23T15:32:00;22.80;50.30
56268;DHT22;42175;46.930;9.532;2022-10-23T15:34:27;22.80;50.00
56268;DHT22;42175;46.930;9.532;2022-10-23T15:36:55;22.80;50.00
56268;DHT22;42175;46.930;9.532;2022-10-23T15:39:24;22.80;49.80
56268;DHT22;42175;46.930;9.532;2022-10-23T15:41:53;22.80;50.90
56268;DHT22;42175;46.930;9.532;2022-10-23T15:44:21;22.80;48.20
56268;DHT22;42175;46.930;9.532;2022-10-23T15:46:48;22.70;48.50
56268;DHT22;42175;46.930;9.532;2022-10-23T15:49:14;22.70;49.00
56268;DHT22;42175;46.930;9.532;2022-10-23T15:51:40;22.70;49.30
56268;DHT22;42175;46.930;9.532;2022-10-23T15:54:08;22.60;48.90
56268;DHT22;42175;46.930;9.532;2022-10-23T15:56:35;22.60;49.80
56268;DHT22;42175;46.930;9.532;2022-10-23T15:59:01;22.60;49.80
56268;DHT22;42175;46.930;9.532;2022-10-23T16:01:27;22.60;49.80
56268;DHT22;42175;46.930;9.532;2022-10-23T16:03:53;22.60;50.20
56268;DHT22;42175;46.930;9.532;2022-10-23T16:06:19;22.50;50.50
56268;DHT22;42175;46.930;9.532;2022-10-23T16:08:46;22.70;51.30
56268;DHT22;42175;46.930;9.532;2022-10-23T16:13:43;22.80;51.30
56268;DHT22;42175;46.930;9.532;2022-10-23T16:16:08;22.80;51.50
56268;DHT22;42175;46.930;9.532;2022-10-23T16:18:34;22.80;51.60
56268;DHT22;42175;46.930;9.532;2022-10-23T16:21:00;22.80;51.70
56268;DHT22;42175;46.930;9.532;2022-10-23T16:23:25;22.90;52.00
56268;DHT22;42175;46.930;9.532;2022-10-23T16:25:53;22.90;52.10
56268;DHT22;42175;46.930;9.532;2022-10-23T16:28:19;22.90;52.20
56268;DHT22;42175;46.930;9.532;2022-10-23T16:30:45;22.80;52.30
56268;DHT22;42175;46.930;9.532;2022-10-23T16:33:11;22.90;52.60
56268;DHT22;42175;46.930;9.532;2022-10-23T16:35:38;22.80;52.50
56268;DHT22;42175;46.930;9.532;2022-10-23T16:38:04;22.90;52.70
56268;DHT22;42175;46.930;9.532;2022-10-23T16:40:30;22.90;52.70
56268;DHT22;42175;46.930;9.532;2022-10-23T16:42:56;22.90;52.90
56268;DHT22;42175;46.930;9.532;2022-10-23T16:45:22;22.90;53.10
56268;DHT22;42175;46.930;9.532;2022-10-23T16:47:48;22.90;53.20
56268;DHT22;42175;46.930;9.532;2022-10-23T16:50:14;22.90;53.20
56268;DHT22;42175;46.930;9.532;2022-10-23T16:52:40;22.90;53.30
56268;DHT22;42175;46.930;9.532;2022-10-23T16:55:06;22.80;53.30
56268;DHT22;42175;46.930;9.532;2022-10-23T16:57:34;22.90;53.30
56268;DHT22;42175;46.930;9.532;2022-10-23T17:00:00;22.90;53.50
56268;DHT22;42175;46.930;9.532;2022-10-23T17:02:25;22.90;53.50
56268;DHT22;42175;46.930;9.532;2022-10-23T17:04:51;22.90;53.50
56268;DHT22;42175;46.930;9.532;2022-10-23T17:07:17;22.90;53.60
56268;DHT22;42175;46.930;9.532;2022-10-23T17:09:43;22.90;54.30
56268;DHT22;42175;46.930;9.532;2022-10-23T17:12:12;22.90;53.80
56268;DHT22;42175;46.930;9.532;2022-10-23T17:14:38;22.90;53.70
56268;DHT22;42175;46.930;9.532;2022-10-23T17:17:04;22.90;53.70
56268;DHT22;42175;46.930;9.532;2022-10-23T17:19:31;22.90;53.80
56268;DHT22;42175;46.930;9.532;2022-10-23T17:21:58;22.90;53.90
56268;DHT22;42175;46.930;9.532;2022-10-23T17:24:25;22.90;53.90
56268;DHT22;42175;46.930;9.532;2022-10-23T17:26:51;22.90;53.90
56268;DHT22;42175;46.930;9.532;2022-10-23T17:29:19;22.90;53.90
56268;DHT22;42175;46.930;9.532;2022-10-23T17:31:47;22.80;53.90
56268;DHT22;42175;46.930;9.532;2022-10-23T17:34:19;22.90;54.00
56268;DHT22;42175;46.930;9.532;2022-10-23T17:36:48;22.80;54.10
56268;DHT22;42175;46.930;9.532;2022-10-23T17:39:16;22.80;54.20
56268;DHT22;42175;46.930;9.532;2022-10-23T17:41:43;22.80;54.10
56268;DHT22;42175;46.930;9.532;2022-10-23T17:44:10;22.80;54.10
56268;DHT22;42175;46.930;9.532;2022-10-23T17:46:35;22.80;54.20
56268;DHT22;42175;46.930;9.532;2022-10-23T17:49:03;22.80;54.20
56268;DHT22;42175;46.930;9.532;2022-10-23T17:51:32;22.80;54.20